sensor_id;sensor_type;location;lat;lon;timestamp;pressure;altitude;pressure_sealevel;temperature;humidity
53960;BME280;39866;48.638;-2.020;2023-02-04T00:02:24;103622.78;;;14.00;58.47
53960;BME280;39866;48.638;-2.020;2023-02-04T00:04:50;103621.88;;;13.95;57.66
53960;BME280;39866;48.638;-2.020;2023-02-04T00:07:16;103614.72;;;13.81;58.09
53960;BME280;39866;48.638;-2.020;2023-02-04T00:09:43;103618.25;;;13.74;56.63
53960;BME280;39866;48.638;-2.020;2023-02-04T00:12:11;103622.69;;;13.65;57.17
53960;BME280;39866;48.638;-2.020;2023-02-04T00:14:36;103617.25;;;13.49;57.09
53960;BME280;39866;48.638;-2.020;2023-02-04T00:17:01;103629.00;;;13.85;56.15
53960;BME280;39866;48.638;-2.020;2023-02-04T00:19:27;103631.75;;;14.05;55.95
53960;BME280;39866;48.638;-2.020;2023-02-04T00:21:52;103625.50;;;14.15;56.48
53960;BME280;39866;48.638;-2.020;2023-02-04T00:24:17;103627.25;;;13.88;57.31
53960;BME280;39866;48.638;-2.020;2023-02-04T00:26:43;103609.25;;;13.58;57.66
53960;BME280;39866;48.638;-2.020;2023-02-04T00:29:08;103622.75;;;13.81;57.09
53960;BME280;39866;48.638;-2.020;2023-02-04T00:31:33;103623.53;;;13.59;55.99
53960;BME280;39866;48.638;-2.020;2023-02-04T00:33:59;103627.03;;;13.43;56.46
53960;BME280;39866;48.638;-2.020;2023-02-04T00:36:24;103626.09;;;13.33;56.17
53960;BME280;39866;48.638;-2.020;2023-02-04T00:38:49;103625.97;;;13.22;56.52
53960;BME280;39866;48.638;-2.020;2023-02-04T00:41:15;103633.25;;;13.37;56.44
53960;BME280;39866;48.638;-2.020;2023-02-04T00:43:40;103631.56;;;13.59;56.30
53960;BME280;39866;48.638;-2.020;2023-02-04T00:46:05;103631.66;;;13.73;56.46
53960;BME280;39866;48.638;-2.020;2023-02-04T00:48:31;103639.81;;;14.17;55.81
53960;BME280;39866;48.638;-2.020;2023-02-04T00:50:56;103629.97;;;14.11;55.58
53960;BME280;39866;48.638;-2.020;2023-02-04T00:53:21;103639.69;;;13.79;56.28
53960;BME280;39866;48.638;-2.020;2023-02-04T00:55:46;103623.56;;;13.67;56.13
53960;BME280;39866;48.638;-2.020;2023-02-04T00:58:12;103624.31;;;13.33;56.91
53960;BME280;39866;48.638;-2.020;2023-02-04T01:00:37;103630.66;;;13.52;56.86
53960;BME280;39866;48.638;-2.020;2023-02-04T01:03:03;103623.53;;;13.59;56.92
53960;BME280;39866;48.638;-2.020;2023-02-04T01:05:28;103631.63;;;13.70;56.89
53960;BME280;39866;48.638;-2.020;2023-02-04T01:07:53;103631.59;;;13.60;57.26
53960;BME280;39866;48.638;-2.020;2023-02-04T01:10:19;103628.09;;;13.78;57.05
53960;BME280;39866;48.638;-2.020;2023-02-04T01:12:44;103635.28;;;13.88;57.31
53960;BME280;39866;48.638;-2.020;2023-02-04T01:15:10;103627.06;;;13.49;57.98
53960;BME280;39866;48.638;-2.020;2023-02-04T01:17:35;103629.97;;;14.07;57.33
53960;BME280;39866;48.638;-2.020;2023-02-04T01:20:01;103635.28;;;13.99;56.81
53960;BME280;39866;48.638;-2.020;2023-02-04T01:22:26;103636.22;;;14.12;56.54
53960;BME280;39866;48.638;-2.020;2023-02-04T01:24:51;103636.19;;;13.97;56.93
53960;BME280;39866;48.638;-2.020;2023-02-04T01:27:17;103642.41;;;13.85;57.60
53960;BME280;39866;48.638;-2.020;2023-02-04T01:29:42;103637.13;;;14.16;56.19
53960;BME280;39866;48.638;-2.020;2023-02-04T01:32:08;103645.06;;;13.86;56.53
53960;BME280;39866;48.638;-2.020;2023-02-04T01:34:33;103643.38;;;14.19;56.61
53960;BME280;39866;48.638;-2.020;2023-02-04T01:36:58;103640.72;;;14.13;57.21
53960;BME280;39866;48.638;-2.020;2023-02-04T01:39:24;103644.22;;;14.00;58.43
53960;BME280;39866;48.638;-2.020;2023-02-04T01:41:49;103645.19;;;14.28;58.12
53960;BME280;39866;48.638;-2.020;2023-02-04T01:44:14;103635.34;;;14.18;57.14
53960;BME280;39866;48.638;-2.020;2023-02-04T01:46:40;103636.19;;;14.03;57.94
53960;BME280;39866;48.638;-2.020;2023-02-04T01:49:06;103645.22;;;14.34;57.49
53960;BME280;39866;48.638;-2.020;2023-02-04T01:51:31;103646.13;;;14.47;57.31
53960;BME280;39866;48.638;-2.020;2023-02-04T01:53:58;103635.38;;;14.36;57.54
53960;BME280;39866;48.638;-2.020;2023-02-04T01:56:25;103652.41;;;14.52;57.29
53960;BME280;39866;48.638;-2.020;2023-02-04T01:58:53;103643.50;;;14.59;57.42
53960;BME280;39866;48.638;-2.020;2023-02-04T02:03:59;103641.59;;;14.20;59.02
53960;BME280;39866;48.638;-2.020;2023-02-04T02:06:25;103648.72;;;14.01;59.28
53960;BME280;39866;48.638;-2.020;2023-02-04T02:08:51;103649.56;;;13.94;59.91
53960;BME280;39866;48.638;-2.020;2023-02-04T02:11:16;103649.66;;;14.17;59.43
53960;BME280;39866;48.638;-2.020;2023-02-04T02:13:42;103651.41;;;14.08;59.35
53960;BME280;39866;48.638;-2.020;2023-02-04T02:16:07;103651.44;;;14.27;59.17
53960;BME280;39866;48.638;-2.020;2023-02-04T02:18:32;103653.13;;;13.94;59.08
53960;BME280;39866;48.638;-2.020;2023-02-04T02:20:59;103641.47;;;13.72;59.72
53960;BME280;39866;48.638;-2.020;2023-02-04T02:23:47;103645.81;;;13.50;60.08
53960;BME280;39866;48.638;-2.020;2023-02-04T02:26:15;103645.81;;;13.52;60.30
53960;BME280;39866;48.638;-2.020;2023-02-04T02:28:41;103649.44;;;13.63;60.27
53960;BME280;39866;48.638;-2.020;2023-02-04T02:31:06;103643.31;;;13.93;59.65
53960;BME280;39866;48.638;-2.020;2023-02-04T02:33:32;103643.38;;;14.13;59.20
53960;BME280;39866;48.638;-2.020;2023-02-04T02:35:57;103640.59;;;13.82;58.65
53960;BME280;39866;48.638;-2.020;2023-02-04T02:38:23;103637.84;;;13.61;58.98
53960;BME280;39866;48.638;-2.020;2023-02-04T02:40:49;103639.69;;;13.83;58.46
53960;BME280;39866;48.638;-2.020;2023-02-04T02:43:19;103637.94;;;13.92;58.06
53960;BME280;39866;48.638;-2.020;2023-02-04T02:45:46;103627.19;;;13.78;57.53
53960;BME280;39866;48.638;-2.020;2023-02-04T02:48:12;103633.59;;;14.21;56.90
53960;BME280;39866;48.638;-2.020;2023-02-04T02:50:38;103639.88;;;14.43;56.53
53960;BME280;39866;48.638;-2.020;2023-02-04T02:53:09;103644.34;;;14.46;56.39
53960;BME280;39866;48.638;-2.020;2023-02-04T02:55:35;103636.31;;;14.49;56.29
53960;BME280;39866;48.638;-2.020;2023-02-04T02:58:00;103638.00;;;14.16;57.30
53960;BME280;39866;48.638;-2.020;2023-02-04T03:00:27;103637.16;;;14.22;57.17
53960;BME280;39866;48.638;-2.020;2023-02-04T03:03:03;103641.50;;;13.83;58.31
53960;BME280;39866;48.638;-2.020;2023-02-04T03:05:31;103644.19;;;13.89;57.93
53960;BME280;39866;48.638;-2.020;2023-02-04T03:07:59;103641.53;;;13.89;57.77
53960;BME280;39866;48.638;-2.020;2023-02-04T03:10:24;103639.69;;;13.77;58.01
53960;BME280;39866;48.638;-2.020;2023-02-04T03:12:50;103638.69;;;13.54;58.36
53960;BME280;39866;48.638;-2.020;2023-02-04T03:15:16;103633.38;;;13.63;58.08
53960;BME280;39866;48.638;-2.020;2023-02-04T03:17:42;103636.94;;;13.56;59.05
53960;BME280;39866;48.638;-2.020;2023-02-04T03:20:08;103629.69;;;13.38;59.18
53960;BME280;39866;48.638;-2.020;2023-02-04T03:22:34;103637.00;;;13.73;58.70
53960;BME280;39866;48.638;-2.020;2023-02-04T03:25:00;103643.31;;;13.93;57.58
53960;BME280;39866;48.638;-2.020;2023-02-04T03:27:25;103646.94;;;14.04;57.18
53960;BME280;39866;48.638;-2.020;2023-02-04T03:29:50;103632.56;;;13.82;57.10
53960;BME280;39866;48.638;-2.020;2023-02-04T03:32:16;103638.78;;;13.74;57.30
53960;BME280;39866;48.638;-2.020;2023-02-04T03:34:41;103643.38;;;14.13;56.72
53960;BME280;39866;48.638;-2.020;2023-02-04T03:37:07;103645.16;;;14.05;57.11
53960;BME280;39866;48.638;-2.020;2023-02-04T03:39:32;103639.66;;;13.68;58.33
53960;BME280;39866;48.638;-2.020;2023-02-04T03:41:58;103641.53;;;13.92;58.73
53960;BME280;39866;48.638;-2.020;2023-02-04T03:44:23;103640.72;;;14.13;58.12
53960;BME280;39866;48.638;-2.020;2023-02-04T03:46:54;103645.19;;;14.17;58.06
53960;BME280;39866;48.638;-2.020;2023-02-04T03:49:22;103649.69;;;14.29;57.96
53960;BME280;39866;48.638;-2.020;2023-02-04T03:51:48;103647.00;;;14.40;57.78
53960;BME280;39866;48.638;-2.020;2023-02-04T03:54:13;103640.72;;;14.28;57.72
53960;BME280;39866;48.638;-2.020;2023-02-04T03:56:39;103641.44;;;13.68;58.22
53960;BME280;39866;48.638;-2.020;2023-02-04T03:59:04;103647.66;;;13.65;59.36
53960;BME280;39866;48.638;-2.020;2023-02-04T04:01:30;103656.78;;;14.10;58.76
53960;BME280;39866;48.638;-2.020;2023-02-04T04:03:55;103651.44;;;14.21;58.30
53960;BME280;39866;48.638;-2.020;2023-02-04T04:06:20;103644.16;;;13.78;57.75
53960;BME280;39866;48.638;-2.020;2023-02-04T04:08:46;103653.06;;;13.73;58.19
53960;BME280;39866;48.638;-2.020;2023-02-04T04:11:11;103659.41;;;14.02;58.50
53960;BME280;39866;48.638;-2.020;2023-02-04T04:13:37;103653.91;;;13.67;60.41
53960;BME280;39866;48.638;-2.020;2023-02-04T04:16:02;103650.31;;;13.56;60.91
53960;BME280;39866;48.638;-2.020;2023-02-04T04:18:29;103643.03;;;13.33;61.83
53960;BME280;39866;48.638;-2.020;2023-02-04T04:20:54;103652.03;;;13.51;60.81
53960;BME280;39866;48.638;-2.020;2023-02-04T04:23:20;103648.47;;;13.50;60.88
53960;BME280;39866;48.638;-2.020;2023-02-04T04:25:45;103660.94;;;13.44;60.86
53960;BME280;39866;48.638;-2.020;2023-02-04T04:28:10;103651.19;;;13.52;60.64
53960;BME280;39866;48.638;-2.020;2023-02-04T04:30:36;103651.06;;;13.32;61.23
53960;BME280;39866;48.638;-2.020;2023-02-04T04:33:01;103651.78;;;13.12;61.21
53960;BME280;39866;48.638;-2.020;2023-02-04T04:35:26;103656.41;;;13.27;60.11
53960;BME280;39866;48.638;-2.020;2023-02-04T04:37:52;103651.13;;;13.46;60.15
53960;BME280;39866;48.638;-2.020;2023-02-04T04:40:17;103655.47;;;13.25;60.83
53960;BME280;39866;48.638;-2.020;2023-02-04T04:42:43;103656.25;;;13.12;59.79
53960;BME280;39866;48.638;-2.020;2023-02-04T04:45:09;103656.25;;;13.12;59.73
53960;BME280;39866;48.638;-2.020;2023-02-04T04:47:35;103658.28;;;13.47;59.32
53960;BME280;39866;48.638;-2.020;2023-02-04T04:50:00;103656.59;;;13.66;58.94
53960;BME280;39866;48.638;-2.020;2023-02-04T04:52:25;103662.94;;;13.91;58.24
53960;BME280;39866;48.638;-2.020;2023-02-04T04:54:51;103664.59;;;13.61;58.03
53960;BME280;39866;48.638;-2.020;2023-02-04T04:57:16;103657.34;;;13.37;59.59
53960;BME280;39866;48.638;-2.020;2023-02-04T04:59:41;103672.63;;;13.56;59.27
53960;BME280;39866;48.638;-2.020;2023-02-04T05:02:07;103668.22;;;13.68;58.67
53960;BME280;39866;48.638;-2.020;2023-02-04T05:04:32;103668.03;;;13.37;58.17
53960;BME280;39866;48.638;-2.020;2023-02-04T05:06:57;103668.00;;;13.28;58.56
53960;BME280;39866;48.638;-2.020;2023-02-04T05:09:23;103673.25;;;13.20;59.40
53960;BME280;39866;48.638;-2.020;2023-02-04T05:11:48;103675.03;;;13.21;59.60
53960;BME280;39866;48.638;-2.020;2023-02-04T05:14:13;103670.81;;;13.52;58.93
53960;BME280;39866;48.638;-2.020;2023-02-04T05:16:39;103673.38;;;13.32;58.89
53960;BME280;39866;48.638;-2.020;2023-02-04T05:19:04;103675.41;;;13.78;57.88
53960;BME280;39866;48.638;-2.020;2023-02-04T05:21:29;103675.41;;;13.76;56.34
53960;BME280;39866;48.638;-2.020;2023-02-04T05:23:54;103669.91;;;13.53;56.95
53960;BME280;39866;48.638;-2.020;2023-02-04T05:26:20;103673.63;;;13.81;57.03
53960;BME280;39866;48.638;-2.020;2023-02-04T05:28:45;103674.38;;;13.53;57.04
53960;BME280;39866;48.638;-2.020;2023-02-04T05:31:10;103672.69;;;13.75;57.17
53960;BME280;39866;48.638;-2.020;2023-02-04T05:33:36;103674.59;;;13.93;56.24
53960;BME280;39866;48.638;-2.020;2023-02-04T05:36:01;103670.53;;;13.17;58.20
53960;BME280;39866;48.638;-2.020;2023-02-04T05:38:26;103672.53;;;13.41;58.40
53960;BME280;39866;48.638;-2.020;2023-02-04T05:40:52;103672.66;;;13.64;57.26
53960;BME280;39866;48.638;-2.020;2023-02-04T05:43:17;103666.44;;;13.74;56.85
53960;BME280;39866;48.638;-2.020;2023-02-04T05:45:42;103670.72;;;13.35;57.23
53960;BME280;39866;48.638;-2.020;2023-02-04T05:48:08;103672.31;;;13.18;58.35
53960;BME280;39866;48.638;-2.020;2023-02-04T05:50:33;103666.19;;;13.28;58.43
53960;BME280;39866;48.638;-2.020;2023-02-04T05:52:58;103676.94;;;13.31;57.97
53960;BME280;39866;48.638;-2.020;2023-02-04T05:55:24;103680.44;;;13.26;57.35
53960;BME280;39866;48.638;-2.020;2023-02-04T05:57:49;103675.00;;;13.17;58.39
53960;BME280;39866;48.638;-2.020;2023-02-04T06:00:14;103684.00;;;13.26;58.71
53960;BME280;39866;48.638;-2.020;2023-02-04T06:02:40;103675.13;;;13.27;58.55
53960;BME280;39866;48.638;-2.020;2023-02-04T06:05:05;103684.31;;;13.72;57.60
53960;BME280;39866;48.638;-2.020;2023-02-04T06:07:31;103687.03;;;13.80;57.07
53960;BME280;39866;48.638;-2.020;2023-02-04T06:09:56;103692.44;;;13.97;56.89
53960;BME280;39866;48.638;-2.020;2023-02-04T06:12:21;103694.25;;;13.98;57.39
53960;BME280;39866;48.638;-2.020;2023-02-04T06:14:47;103691.56;;;14.02;57.07
53960;BME280;39866;48.638;-2.020;2023-02-04T06:17:12;103688.72;;;13.66;56.84
53960;BME280;39866;48.638;-2.020;2023-02-04T06:19:37;103693.16;;;13.56;56.71
53960;BME280;39866;48.638;-2.020;2023-02-04T06:22:02;103683.38;;;13.66;57.27
53960;BME280;39866;48.638;-2.020;2023-02-04T06:24:28;103695.09;;;13.91;56.04
53960;BME280;39866;48.638;-2.020;2023-02-04T06:26:53;103691.41;;;13.70;56.01
53960;BME280;39866;48.638;-2.020;2023-02-04T06:29:19;103694.94;;;13.60;56.19
53960;BME280;39866;48.638;-2.020;2023-02-04T06:31:44;103693.97;;;13.46;56.46
53960;BME280;39866;48.638;-2.020;2023-02-04T06:34:09;103690.47;;;13.59;55.80
53960;BME280;39866;48.638;-2.020;2023-02-04T06:36:35;103684.28;;;13.69;55.28
53960;BME280;39866;48.638;-2.020;2023-02-04T06:39:00;103693.25;;;13.77;54.79
53960;BME280;39866;48.638;-2.020;2023-02-04T06:41:25;103688.84;;;13.84;54.92
53960;BME280;39866;48.638;-2.020;2023-02-04T06:43:51;103694.91;;;13.52;54.95
53960;BME280;39866;48.638;-2.020;2023-02-04T06:46:16;103687.00;;;13.83;54.53
53960;BME280;39866;48.638;-2.020;2023-02-04T06:48:41;103700.53;;;14.09;54.41
53960;BME280;39866;48.638;-2.020;2023-02-04T06:51:07;103689.44;;;13.35;55.90
53960;BME280;39866;48.638;-2.020;2023-02-04T06:53:32;103686.56;;;13.14;54.83
53960;BME280;39866;48.638;-2.020;2023-02-04T06:55:57;103693.56;;;12.97;55.05
53960;BME280;39866;48.638;-2.020;2023-02-04T06:58:23;103696.06;;;12.77;55.20
53960;BME280;39866;48.638;-2.020;2023-02-04T07:00:48;103701.25;;;12.60;55.39
53960;BME280;39866;48.638;-2.020;2023-02-04T07:03:13;103703.22;;;12.78;54.66
53960;BME280;39866;48.638;-2.020;2023-02-04T07:05:39;103700.53;;;12.76;54.55
53960;BME280;39866;48.638;-2.020;2023-02-04T07:08:04;103696.41;;;13.17;54.03
53960;BME280;39866;48.638;-2.020;2023-02-04T07:10:29;103697.38;;;13.26;52.95
53960;BME280;39866;48.638;-2.020;2023-02-04T07:12:56;103696.22;;;12.91;53.98
53960;BME280;39866;48.638;-2.020;2023-02-04T07:15:21;103695.53;;;13.14;53.76
53960;BME280;39866;48.638;-2.020;2023-02-04T07:17:47;103696.41;;;13.15;53.80
53960;BME280;39866;48.638;-2.020;2023-02-04T07:20:12;103697.53;;;13.46;53.35
53960;BME280;39866;48.638;-2.020;2023-02-04T07:22:37;103678.88;;;13.61;52.25
53960;BME280;39866;48.638;-2.020;2023-02-04T07:25:03;103688.75;;;13.75;51.95
53960;BME280;39866;48.638;-2.020;2023-02-04T07:27:29;103688.84;;;13.92;52.17
53960;BME280;39866;48.638;-2.020;2023-02-04T07:29:54;103684.38;;;13.95;52.04
53960;BME280;39866;48.638;-2.020;2023-02-04T07:32:19;103690.66;;;13.97;51.76
53960;BME280;39866;48.638;-2.020;2023-02-04T07:34:45;103687.91;;;13.77;51.80
53960;BME280;39866;48.638;-2.020;2023-02-04T07:37:10;103692.34;;;13.72;52.13
53960;BME280;39866;48.638;-2.020;2023-02-04T07:39:36;103686.31;;;12.79;53.45
53960;BME280;39866;48.638;-2.020;2023-02-04T07:42:01;103688.72;;;13.61;52.06
53960;BME280;39866;48.638;-2.020;2023-02-04T07:44:26;103689.63;;;13.66;51.77
53960;BME280;39866;48.638;-2.020;2023-02-04T07:46:52;103692.19;;;13.45;52.85
53960;BME280;39866;48.638;-2.020;2023-02-04T07:49:17;103688.66;;;13.52;52.13
53960;BME280;39866;48.638;-2.020;2023-02-04T07:51:42;103685.13;;;13.60;52.59
53960;BME280;39866;48.638;-2.020;2023-02-04T07:54:08;103689.59;;;13.60;53.07
53960;BME280;39866;48.638;-2.020;2023-02-04T07:56:33;103689.66;;;13.74;53.56
53960;BME280;39866;48.638;-2.020;2023-02-04T07:58:58;103694.09;;;13.64;53.07
53960;BME280;39866;48.638;-2.020;2023-02-04T08:01:24;103685.94;;;13.44;53.67
53960;BME280;39866;48.638;-2.020;2023-02-04T08:03:49;103694.94;;;13.63;53.77
53960;BME280;39866;48.638;-2.020;2023-02-04T08:06:14;103693.16;;;13.56;53.63
53960;BME280;39866;48.638;-2.020;2023-02-04T08:08:40;103685.81;;;13.30;53.20
53960;BME280;39866;48.638;-2.020;2023-02-04T08:11:05;103691.88;;;13.09;53.48
53960;BME280;39866;48.638;-2.020;2023-02-04T08:13:30;103700.22;;;13.45;53.37
53960;BME280;39866;48.638;-2.020;2023-02-04T08:15:56;103700.38;;;13.72;53.24
53960;BME280;39866;48.638;-2.020;2023-02-04T08:18:21;103706.72;;;13.93;52.47
53960;BME280;39866;48.638;-2.020;2023-02-04T08:20:49;103702.25;;;13.99;52.17
53960;BME280;39866;48.638;-2.020;2023-02-04T08:23:14;103711.00;;;13.61;52.34
53960;BME280;39866;48.638;-2.020;2023-02-04T08:25:39;103702.22;;;13.92;52.46
53960;BME280;39866;48.638;-2.020;2023-02-04T08:28:05;103703.06;;;13.78;52.64
53960;BME280;39866;48.638;-2.020;2023-02-04T08:30:30;103705.72;;;13.68;53.01
53960;BME280;39866;48.638;-2.020;2023-02-04T08:32:58;103712.81;;;13.66;52.80
53960;BME280;39866;48.638;-2.020;2023-02-04T08:35:23;103715.44;;;13.56;53.26
53960;BME280;39866;48.638;-2.020;2023-02-04T08:37:49;103713.81;;;13.80;53.29
53960;BME280;39866;48.638;-2.020;2023-02-04T08:40:14;103718.28;;;13.87;53.18
53960;BME280;39866;48.638;-2.020;2023-02-04T08:42:40;103716.59;;;14.06;53.12
53960;BME280;39866;48.638;-2.020;2023-02-04T08:45:05;103721.06;;;14.01;54.05
53960;BME280;39866;48.638;-2.020;2023-02-04T08:47:31;103723.75;;;14.16;53.50
53960;BME280;39866;48.638;-2.020;2023-02-04T08:49:56;103723.63;;;13.87;53.57
53960;BME280;39866;48.638;-2.020;2023-02-04T08:52:22;103725.47;;;13.88;53.32
53960;BME280;39866;48.638;-2.020;2023-02-04T08:54:48;103722.81;;;13.97;52.79
53960;BME280;39866;48.638;-2.020;2023-02-04T08:57:13;103732.53;;;13.83;52.82
53960;BME280;39866;48.638;-2.020;2023-02-04T08:59:39;103740.47;;;13.60;53.24
53960;BME280;39866;48.638;-2.020;2023-02-04T09:02:04;103743.66;;;13.18;54.25
53960;BME280;39866;48.638;-2.020;2023-02-04T09:04:30;103740.28;;;13.32;53.55
53960;BME280;39866;48.638;-2.020;2023-02-04T09:06:55;103745.03;;;13.76;52.83
53960;BME280;39866;48.638;-2.020;2023-02-04T09:09:21;103745.03;;;13.82;53.95
53960;BME280;39866;48.638;-2.020;2023-02-04T09:11:49;103746.66;;;13.54;53.09
53960;BME280;39866;48.638;-2.020;2023-02-04T09:14:15;103748.28;;;13.32;52.65
53960;BME280;39866;48.638;-2.020;2023-02-04T09:16:40;103748.69;;;13.94;51.81
53960;BME280;39866;48.638;-2.020;2023-02-04T09:19:05;103757.59;;;13.96;51.77
53960;BME280;39866;48.638;-2.020;2023-02-04T09:21:33;103753.94;;;13.75;52.43
53960;BME280;39866;48.638;-2.020;2023-02-04T09:23:59;103761.03;;;13.64;53.00
53960;BME280;39866;48.638;-2.020;2023-02-04T09:26:24;103764.59;;;13.66;53.53
53960;BME280;39866;48.638;-2.020;2023-02-04T09:28:50;103772.66;;;13.69;53.44
53960;BME280;39866;48.638;-2.020;2023-02-04T09:31:15;103771.75;;;13.70;53.87
53960;BME280;39866;48.638;-2.020;2023-02-04T09:33:40;103776.09;;;13.54;54.43
53960;BME280;39866;48.638;-2.020;2023-02-04T09:36:06;103776.97;;;13.50;55.00
53960;BME280;39866;48.638;-2.020;2023-02-04T09:38:31;103769.09;;;13.73;54.84
53960;BME280;39866;48.638;-2.020;2023-02-04T09:41:00;103775.25;;;13.57;55.47
53960;BME280;39866;48.638;-2.020;2023-02-04T09:43:29;103780.53;;;13.51;56.02
53960;BME280;39866;48.638;-2.020;2023-02-04T09:45:56;103781.47;;;13.54;56.13
53960;BME280;39866;48.638;-2.020;2023-02-04T09:48:23;103790.38;;;13.52;55.64
53960;BME280;39866;48.638;-2.020;2023-02-04T09:50:52;103796.50;;;13.38;55.13
53960;BME280;39866;48.638;-2.020;2023-02-04T09:53:23;103790.53;;;12.77;54.58
53960;BME280;39866;48.638;-2.020;2023-02-04T09:55:50;103807.81;;;13.08;54.09
53960;BME280;39866;48.638;-2.020;2023-02-04T09:58:18;103803.53;;;13.23;54.20
53960;BME280;39866;48.638;-2.020;2023-02-04T10:00:45;103802.88;;;13.51;52.59
53960;BME280;39866;48.638;-2.020;2023-02-04T10:03:16;103806.88;;;13.03;52.60
53960;BME280;39866;48.638;-2.020;2023-02-04T10:05:43;103808.00;;;13.25;52.01
53960;BME280;39866;48.638;-2.020;2023-02-04T10:08:20;103804.63;;;13.51;52.36
53960;BME280;39866;48.638;-2.020;2023-02-04T10:10:47;103813.28;;;13.19;52.05
53960;BME280;39866;48.638;-2.020;2023-02-04T10:13:35;103818.84;;;13.42;51.95
53960;BME280;39866;48.638;-2.020;2023-02-04T10:16:04;103811.63;;;13.32;51.90
53960;BME280;39866;48.638;-2.020;2023-02-04T10:18:33;103806.25;;;13.27;52.04
53960;BME280;39866;48.638;-2.020;2023-02-04T10:21:12;103808.16;;;13.44;51.89
53960;BME280;39866;48.638;-2.020;2023-02-04T10:23:38;103812.25;;;13.06;51.94
53960;BME280;39866;48.638;-2.020;2023-02-04T10:26:04;103821.22;;;13.13;51.71
53960;BME280;39866;48.638;-2.020;2023-02-04T10:28:34;103823.09;;;13.20;51.19
53960;BME280;39866;48.638;-2.020;2023-02-04T10:30:59;103823.25;;;13.37;51.06
53960;BME280;39866;48.638;-2.020;2023-02-04T10:33:28;103826.84;;;13.37;50.72
53960;BME280;39866;48.638;-2.020;2023-02-04T10:35:55;103829.16;;;13.02;51.32
53960;BME280;39866;48.638;-2.020;2023-02-04T10:38:21;103827.84;;;13.47;49.93
53960;BME280;39866;48.638;-2.020;2023-02-04T10:40:46;103837.84;;;13.74;50.16
53960;BME280;39866;48.638;-2.020;2023-02-04T10:43:19;103834.16;;;13.55;49.86
53960;BME280;39866;48.638;-2.020;2023-02-04T10:45:47;103840.47;;;13.71;49.90
53960;BME280;39866;48.638;-2.020;2023-02-04T10:48:17;103837.91;;;13.83;48.92
53960;BME280;39866;48.638;-2.020;2023-02-04T10:50:45;103836.16;;;13.88;49.52
53960;BME280;39866;48.638;-2.020;2023-02-04T10:53:14;103850.44;;;13.87;49.50
53960;BME280;39866;48.638;-2.020;2023-02-04T10:55:58;103853.97;;;13.80;49.30
53960;BME280;39866;48.638;-2.020;2023-02-04T10:58:26;103842.34;;;13.77;50.83
53960;BME280;39866;48.638;-2.020;2023-02-04T11:00:52;103850.25;;;13.63;50.36
53960;BME280;39866;48.638;-2.020;2023-02-04T11:03:21;103843.38;;;14.03;49.83
53960;BME280;39866;48.638;-2.020;2023-02-04T11:05:47;103840.72;;;14.00;49.46
53960;BME280;39866;48.638;-2.020;2023-02-04T11:08:24;103839.06;;;14.21;49.02
53960;BME280;39866;48.638;-2.020;2023-02-04T11:10:57;103855.22;;;14.44;49.52
53960;BME280;39866;48.638;-2.020;2023-02-04T11:13:39;103842.84;;;14.67;49.23
53960;BME280;39866;48.638;-2.020;2023-02-04T11:19:08;103841.13;;;14.83;49.16
53960;BME280;39866;48.638;-2.020;2023-02-04T11:26:37;103840.25;;;15.04;49.18
53960;BME280;39866;48.638;-2.020;2023-02-04T11:37:10;103830.41;;;14.92;49.25
53960;BME280;39866;48.638;-2.020;2023-02-04T11:39:38;103824.00;;;14.49;49.34
53960;BME280;39866;48.638;-2.020;2023-02-04T11:42:20;103821.28;;;14.46;49.78
53960;BME280;39866;48.638;-2.020;2023-02-04T11:44:58;103831.28;;;14.83;49.07
53960;BME280;39866;48.638;-2.020;2023-02-04T11:47:24;103821.41;;;14.73;49.85
53960;BME280;39866;48.638;-2.020;2023-02-04T11:50:01;103828.56;;;14.74;49.95
53960;BME280;39866;48.638;-2.020;2023-02-04T11:52:27;103825.94;;;14.96;49.67
53960;BME280;39866;48.638;-2.020;2023-02-04T11:54:54;103827.72;;;15.00;49.76
53960;BME280;39866;48.638;-2.020;2023-02-04T11:57:19;103826.81;;;14.98;49.97
53960;BME280;39866;48.638;-2.020;2023-02-04T11:59:45;103826.84;;;15.01;49.95
53960;BME280;39866;48.638;-2.020;2023-02-04T12:02:19;103830.44;;;15.14;49.84
53960;BME280;39866;48.638;-2.020;2023-02-04T12:04:52;103832.22;;;15.18;49.63
53960;BME280;39866;48.638;-2.020;2023-02-04T12:07:24;103838.50;;;15.21;49.74
53960;BME280;39866;48.638;-2.020;2023-02-04T12:09:50;103831.34;;;15.19;49.87
53960;BME280;39866;48.638;-2.020;2023-02-04T12:12:27;103842.06;;;15.08;50.04
53960;BME280;39866;48.638;-2.020;2023-02-04T12:15:00;103832.25;;;15.15;50.32
53960;BME280;39866;48.638;-2.020;2023-02-04T12:17:26;103825.06;;;15.12;50.39
53960;BME280;39866;48.638;-2.020;2023-02-04T12:19:51;103834.03;;;15.11;50.92
53960;BME280;39866;48.638;-2.020;2023-02-04T12:22:17;103831.28;;;14.83;51.46
53960;BME280;39866;48.638;-2.020;2023-02-04T12:24:42;103828.41;;;14.42;52.76
53960;BME280;39866;48.638;-2.020;2023-02-04T12:27:08;103823.13;;;14.56;52.64
53960;BME280;39866;48.638;-2.020;2023-02-04T12:29:33;103821.38;;;14.69;51.84
53960;BME280;39866;48.638;-2.020;2023-02-04T12:31:58;103806.19;;;14.66;50.86
53960;BME280;39866;48.638;-2.020;2023-02-04T12:34:24;103811.56;;;14.66;50.61
53960;BME280;39866;48.638;-2.020;2023-02-04T12:36:49;103815.16;;;14.77;51.00
53960;BME280;39866;48.638;-2.020;2023-02-04T12:39:14;103816.91;;;14.60;50.99
53960;BME280;39866;48.638;-2.020;2023-02-04T12:41:40;103819.56;;;14.54;51.76
53960;BME280;39866;48.638;-2.020;2023-02-04T12:44:05;103825.00;;;14.75;51.56
53960;BME280;39866;48.638;-2.020;2023-02-04T12:46:31;103828.59;;;14.79;52.55
53960;BME280;39866;48.638;-2.020;2023-02-04T12:48:56;103821.34;;;14.53;52.12
53960;BME280;39866;48.638;-2.020;2023-02-04T12:51:21;103821.03;;;13.97;51.90
53960;BME280;39866;48.638;-2.020;2023-02-04T12:53:48;103808.56;;;14.03;51.64
53960;BME280;39866;48.638;-2.020;2023-02-04T12:56:14;103823.84;;;14.24;50.79